Time;durP1;ratioP1;P1;durP2;ratioP2;P2;SDS_P1;SDS_P2;PMS_P1;PMS_P2;Temp;Humidity;BMP_temperature;BMP_pressure;BME280_temperature;BME280_humidity;BME280_pressure;Samples;Min_cycle;Max_cycle;Signal;HPM_P1;HPM_P2
2023/09/12 00:02:09;;;;;;;63.10;49.93;;;20.50;99.90;;;;;;4956612;28;20444;-93
2023/09/12 00:04:35;;;;;;;49.72;44.28;;;20.00;99.90;;;;;;4956915;28;20434;-92
2023/09/12 00:07:01;;;;;;;52.97;45.28;;;19.90;99.90;;;;;;4955622;28;20478;-92
2023/09/12 00:09:27;;;;;;;48.70;43.20;;;20.10;99.90;;;;;;4957483;28;20426;-92
2023/09/12 00:11:53;;;;;;;54.60;47.00;;;20.00;99.90;;;;;;4954714;28;20946;-91
2023/09/12 00:14:19;;;;;;;51.80;45.60;;;20.10;99.90;;;;;;4956956;28;20939;-92
2023/09/12 00:16:45;;;;;;;50.03;44.63;;;20.40;99.90;;;;;;4954795;28;20418;-91
2023/09/12 00:19:10;;;;;;;62.28;47.67;;;19.90;99.90;;;;;;4956867;28;20417;-92
2023/09/12 00:21:36;;;;;;;58.00;46.50;;;19.90;99.90;;;;;;4955483;28;20438;-92
2023/09/12 00:24:02;;;;;;;51.00;43.60;;;19.90;99.90;;;;;;4955874;28;20502;-91
2023/09/12 00:26:30;;;;;;;60.60;49.03;;;19.90;99.90;;;;;;4956469;28;20482;-92
2023/09/12 00:28:56;;;;;;;54.33;46.58;;;20.20;99.90;;;;;;4954378;28;20967;-92
2023/09/12 00:31:22;;;;;;;57.23;47.13;;;20.00;99.90;;;;;;4956122;28;20422;-91
2023/09/12 00:33:47;;;;;;;61.42;49.33;;;19.70;99.90;;;;;;4954521;28;20422;-93
2023/09/12 00:36:13;;;;;;;53.73;44.97;;;19.60;99.90;;;;;;4956410;28;20805;-92
2023/09/12 00:38:39;;;;;;;55.15;45.13;;;19.60;99.90;;;;;;4954644;28;20450;-92
2023/09/12 00:41:04;;;;;;;47.07;42.07;;;19.60;99.90;;;;;;4956032;28;20526;-92
2023/09/12 00:43:30;;;;;;;48.67;43.38;;;19.60;99.90;;;;;;4955963;28;20418;-92
2023/09/12 00:45:56;;;;;;;46.83;42.00;;;19.80;99.90;;;;;;4954752;28;20414;-92
2023/09/12 00:48:23;;;;;;;64.23;47.77;;;20.10;99.90;;;;;;4956762;28;20415;-93
2023/09/12 00:50:50;;;;;;;70.05;48.58;;;19.70;99.90;;;;;;4954855;28;20418;-92
2023/09/12 00:53:17;;;;;;;79.33;53.03;;;19.60;99.90;;;;;;4956223;28;20418;-93
2023/09/12 00:55:51;;;;;;;104.35;57.63;;;19.50;99.90;;;;;;4954282;28;20932;-92
2023/09/12 00:58:17;;;;;;;56.10;47.90;;;19.40;99.90;;;;;;4956240;28;20415;-92
2023/09/12 01:00:43;;;;;;;74.20;52.22;;;19.40;99.90;;;;;;4955458;28;21110;-91
2023/09/12 01:03:09;;;;;;;62.30;49.40;;;19.40;99.90;;;;;;4955128;28;20522;-91
2023/09/12 01:05:35;;;;;;;55.83;46.30;;;19.90;99.90;;;;;;4956158;28;20415;-91
2023/09/12 01:08:01;;;;;;;54.85;43.92;;;19.60;99.90;;;;;;4954398;28;20497;-91
2023/09/12 01:10:27;;;;;;;45.17;40.35;;;19.40;99.90;;;;;;4955874;28;20937;-92
2023/09/12 01:12:53;;;;;;;45.10;40.17;;;19.70;99.90;;;;;;4954033;28;20762;-92
2023/09/12 01:15:18;;;;;;;46.53;41.45;;;19.20;99.90;;;;;;4955958;28;20434;-91
2023/09/12 01:17:45;;;;;;;50.20;42.70;;;19.50;99.90;;;;;;4954418;28;20419;-92
2023/09/12 01:20:18;;;;;;;63.05;41.95;;;19.40;99.90;;;;;;4955421;28;20838;-92
2023/09/12 01:22:55;;;;;;;45.40;40.70;;;19.10;99.90;;;;;;4956013;28;20423;-92
2023/09/12 01:25:37;;;;;;;47.97;42.73;;;19.80;99.90;;;;;;4950304;28;20505;-92
2023/09/12 01:28:07;;;;;;;64.30;49.58;;;19.30;99.90;;;;;;4952701;28;20428;-93
2023/09/12 01:30:34;;;;;;;55.55;45.65;;;19.50;99.90;;;;;;4951324;28;20495;-91
2023/09/12 01:33:00;;;;;;;46.33;41.30;;;19.30;99.90;;;;;;4952408;28;20772;-90
2023/09/12 01:35:26;;;;;;;51.60;43.33;;;19.00;99.90;;;;;;4954996;28;20415;-91
2023/09/12 01:37:52;;;;;;;53.40;43.97;;;18.80;99.90;;;;;;4954519;28;20430;-92
2023/09/12 01:40:43;;;;;;;45.70;40.77;;;19.30;99.90;;;;;;4955602;28;20441;-92
2023/09/12 01:43:10;;;;;;;46.67;41.57;;;19.50;99.90;;;;;;4937984;28;20474;-92
2023/09/12 01:45:36;;;;;;;44.50;39.67;;;19.30;99.90;;;;;;4959727;28;20433;-92
2023/09/12 01:48:04;;;;;;;64.97;45.72;;;19.70;99.90;;;;;;4958030;28;20410;-92
2023/09/12 01:50:31;;;;;;;47.83;40.53;;;19.20;99.90;;;;;;4958705;28;20433;-92
2023/09/12 01:52:57;;;;;;;83.90;41.37;;;19.10;99.90;;;;;;4959181;28;20410;-92
2023/09/12 01:55:24;;;;;;;45.40;39.00;;;19.00;99.90;;;;;;4957571;28;20418;-91
2023/09/12 01:57:50;;;;;;;47.08;38.92;;;18.90;99.90;;;;;;4959616;28;20418;-91
2023/09/12 02:00:19;;;;;;;38.53;34.42;;;18.90;99.90;;;;;;4957675;28;20414;-93
2023/09/12 02:02:44;;;;;;;41.03;36.63;;;19.30;99.90;;;;;;4959378;28;20414;-91
2023/09/12 02:05:22;;;;;;;58.43;44.17;;;19.20;99.90;;;;;;4957246;28;20406;-92
2023/09/12 02:07:48;;;;;;;48.33;40.90;;;18.70;99.90;;;;;;4958516;28;20513;-91
2023/09/12 02:10:14;;;;;;;41.83;37.53;;;18.90;99.90;;;;;;4959318;28;20829;-91
2023/09/12 02:12:40;;;;;;;39.40;35.25;;;18.70;99.90;;;;;;4957682;28;20801;-91
2023/09/12 02:15:06;;;;;;;39.17;33.35;;;19.00;99.90;;;;;;4959062;28;20421;-93
2023/09/12 02:17:32;;;;;;;38.35;34.30;;;18.50;99.90;;;;;;4956984;28;20417;-91
2023/09/12 02:19:58;;;;;;;38.33;33.22;;;18.50;99.90;;;;;;4958699;28;20426;-92
2023/09/12 02:22:23;;;;;;;341.30;56.33;;;18.40;99.90;;;;;;4956863;28;20480;-91
2023/09/12 02:24:49;;;;;;;37.78;33.75;;;18.40;99.90;;;;;;4959185;28;20473;-92
2023/09/12 02:27:15;;;;;;;76.53;46.08;;;18.30;99.90;;;;;;4958117;28;20422;-91
2023/09/12 02:29:42;;;;;;;254.20;51.67;;;18.70;99.90;;;;;;4957528;28;20403;-91
2023/09/12 02:32:07;;;;;;;41.00;35.75;;;18.70;99.90;;;;;;4958624;28;20415;-91
2023/09/12 02:34:33;;;;;;;313.57;44.37;;;18.50;99.90;;;;;;4956113;28;20773;-91
2023/09/12 02:36:59;;;;;;;47.83;37.80;;;18.20;99.90;;;;;;4958459;28;20425;-91
2023/09/12 02:39:25;;;;;;;44.88;37.42;;;18.40;99.90;;;;;;4956147;28;20419;-90
2023/09/12 02:41:50;;;;;;;358.10;51.23;;;18.10;99.90;;;;;;4958127;28;20884;-90
2023/09/12 02:44:16;;;;;;;118.18;47.00;;;17.90;99.90;;;;;;4956541;28;20451;-90
2023/09/12 02:46:42;;;;;;;125.60;44.70;;;18.40;99.90;;;;;;4974029;28;20476;-90
2023/09/12 02:49:08;;;;;;;52.17;37.63;;;18.00;99.90;;;;;;4957911;28;20410;-90
2023/09/12 02:51:33;;;;;;;58.17;36.97;;;18.00;99.90;;;;;;4956623;28;20422;-91
2023/09/12 02:53:59;;;;;;;38.47;33.80;;;18.00;99.90;;;;;;4957801;28;20414;-91
2023/09/12 02:56:24;;;;;;;57.00;33.17;;;17.80;99.90;;;;;;4956121;28;21166;-91
2023/09/12 02:58:50;;;;;;;46.97;39.30;;;17.90;99.90;;;;;;4958016;28;20422;-92
2023/09/12 03:01:20;;;;;;;51.97;42.20;;;17.80;99.90;;;;;;4955681;28;20449;-92
2023/09/12 03:03:46;;;;;;;80.60;47.72;;;18.10;99.90;;;;;;4957770;28;20502;-90
2023/09/12 03:06:13;;;;;;;277.57;59.80;;;17.90;99.90;;;;;;4957281;28;20901;-91
2023/09/12 03:08:39;;;;;;;116.65;49.35;;;17.80;99.90;;;;;;4957024;28;20816;-91
2023/09/12 03:11:07;;;;;;;92.30;48.95;;;17.90;99.90;;;;;;4957753;28;20418;-92
2023/09/12 03:13:33;;;;;;;92.57;48.43;;;18.00;99.90;;;;;;4955746;28;20413;-92
2023/09/12 03:15:59;;;;;;;72.20;45.15;;;17.90;99.90;;;;;;4957602;28;20414;-91
2023/09/12 03:18:25;;;;;;;142.70;48.67;;;17.90;99.90;;;;;;4971564;28;20477;-91
2023/09/12 03:20:50;;;;;;;204.87;55.40;;;18.20;99.90;;;;;;4957985;28;20474;-92
2023/09/12 03:23:16;;;;;;;136.00;48.87;;;18.30;99.90;;;;;;4956033;28;20559;-90
2023/09/12 03:25:41;;;;;;;170.00;50.17;;;18.00;99.90;;;;;;4957110;28;20426;-91
2023/09/12 03:28:08;;;;;;;123.83;49.03;;;18.50;99.90;;;;;;4956862;28;20477;-91
2023/09/12 03:30:35;;;;;;;113.90;49.83;;;18.20;99.90;;;;;;4955773;28;20544;-91
2023/09/12 03:33:01;;;;;;;176.52;49.85;;;18.00;99.90;;;;;;4957427;28;20419;-90
2023/09/12 03:35:28;;;;;;;260.27;57.40;;;18.40;99.90;;;;;;4955266;28;20509;-91
2023/09/12 03:37:54;;;;;;;108.30;46.83;;;18.20;99.90;;;;;;4957510;28;20425;-91
2023/09/12 03:40:20;;;;;;;82.80;42.67;;;17.90;99.90;;;;;;4955489;28;20418;-92
2023/09/12 03:42:45;;;;;;;177.50;52.35;;;18.10;99.90;;;;;;4957258;28;20433;-91
2023/09/12 03:45:11;;;;;;;96.50;45.20;;;18.10;99.90;;;;;;4956062;28;20925;-91
2023/09/12 03:47:37;;;;;;;75.78;42.80;;;18.20;99.90;;;;;;4956275;28;20410;-91
2023/09/12 03:50:03;;;;;;;70.93;42.90;;;18.30;99.90;;;;;;4956992;28;20433;-91
2023/09/12 03:52:29;;;;;;;168.85;46.05;;;18.20;99.90;;;;;;4954870;28;20411;-90
2023/09/12 03:54:55;;;;;;;134.37;45.23;;;18.20;99.90;;;;;;4957131;28;20414;-90
2023/09/12 03:57:21;;;;;;;129.20;42.42;;;18.20;99.90;;;;;;4970910;28;20479;-91
2023/09/12 03:59:46;;;;;;;175.88;46.97;;;18.20;99.90;;;;;;4956956;28;21068;-92
2023/09/12 04:02:12;;;;;;;162.43;48.03;;;18.00;99.90;;;;;;4971516;28;20447;-91
2023/09/12 04:04:38;;;;;;;142.80;47.50;;;18.60;99.90;;;;;;4955755;28;20465;-91
2023/09/12 04:07:04;;;;;;;107.75;45.03;;;18.20;99.90;;;;;;4972400;28;20427;-92
2023/09/12 04:09:30;;;;;;;154.02;48.85;;;18.10;99.90;;;;;;4971310;28;20426;-90
2023/09/12 04:11:56;;;;;;;111.60;45.27;;;18.00;99.90;;;;;;4956985;28;20900;-92
2023/09/12 04:14:22;;;;;;;130.95;47.08;;;18.50;99.90;;;;;;4954133;28;20490;-91
2023/09/12 04:16:48;;;;;;;83.20;42.78;;;18.10;99.90;;;;;;4973028;28;20424;-90
2023/09/12 04:19:14;;;;;;;133.57;45.30;;;17.90;99.90;;;;;;4954492;28;20422;-90
2023/09/12 04:21:40;;;;;;;64.63;42.88;;;18.10;99.90;;;;;;4956800;28;20956;-91
2023/09/12 04:24:07;;;;;;;74.28;44.53;;;18.30;99.90;;;;;;4955893;28;20414;-91
2023/09/12 04:26:32;;;;;;;84.05;45.35;;;18.10;99.90;;;;;;4955220;28;20422;-91
2023/09/12 04:28:58;;;;;;;119.13;46.03;;;18.00;99.90;;;;;;4956415;28;20414;-90
2023/09/12 04:31:24;;;;;;;131.33;47.60;;;18.30;99.90;;;;;;4954285;28;20897;-92
2023/09/12 04:33:53;;;;;;;132.63;49.72;;;18.30;99.90;;;;;;4956418;28;20418;-91
2023/09/12 04:36:20;;;;;;;121.55;49.70;;;18.00;99.90;;;;;;4954269;28;20422;-91
2023/09/12 04:38:46;;;;;;;189.23;58.65;;;18.00;99.90;;;;;;4956656;28;20751;-92
2023/09/12 04:41:16;;;;;;;126.45;49.75;;;17.90;99.90;;;;;;4954682;28;20441;-91
2023/09/12 04:43:44;;;;;;;75.78;48.60;;;18.00;99.90;;;;;;4955576;28;20414;-91
2023/09/12 04:46:10;;;;;;;117.17;52.83;;;18.10;99.90;;;;;;4956503;28;20912;-91
2023/09/12 04:48:36;;;;;;;80.22;50.10;;;18.00;99.90;;;;;;4953042;28;20426;-92
2023/09/12 04:51:02;;;;;;;95.37;51.90;;;18.50;99.90;;;;;;4955938;28;20418;-91
2023/09/12 04:53:33;;;;;;;155.43;53.47;;;18.00;99.90;;;;;;4953958;28;20909;-91
2023/09/12 04:55:59;;;;;;;106.93;54.38;;;18.00;99.90;;;;;;4956110;28;20414;-90
2023/09/12 04:58:25;;;;;;;79.07;48.73;;;18.00;99.90;;;;;;4954155;28;20421;-92
2023/09/12 05:00:50;;;;;;;164.02;56.15;;;18.30;99.90;;;;;;4962063;28;20463;-92
2023/09/12 05:03:16;;;;;;;122.73;55.20;;;18.00;99.90;;;;;;4974893;28;20413;-92
2023/09/12 05:05:44;;;;;;;220.07;60.25;;;17.90;99.90;;;;;;4973848;28;20425;-92
2023/09/12 05:08:10;;;;;;;112.10;57.30;;;18.00;99.90;;;;;;4975430;28;20442;-91
2023/09/12 05:10:37;;;;;;;157.87;55.53;;;18.00;99.90;;;;;;4972881;28;20428;-92
2023/09/12 05:13:04;;;;;;;199.93;59.55;;;18.00;99.90;;;;;;4955679;28;20766;-93
2023/09/12 05:15:30;;;;;;;165.90;56.83;;;18.00;99.90;;;;;;4954173;28;21153;-93
2023/09/12 05:17:55;;;;;;;226.93;59.67;;;18.00;99.90;;;;;;4958838;28;21087;-90
2023/09/12 05:20:21;;;;;;;144.47;57.30;;;17.70;99.90;;;;;;4989829;28;20986;-92
2023/09/12 05:22:46;;;;;;;144.50;54.75;;;18.60;99.90;;;;;;4974193;28;20789;-92
2023/09/12 05:25:12;;;;;;;193.77;61.47;;;18.00;99.90;;;;;;4975264;28;20911;-93
2023/09/12 05:27:38;;;;;;;116.57;55.28;;;18.10;99.90;;;;;;4973296;28;20424;-93
2023/09/12 05:30:04;;;;;;;92.07;52.87;;;18.50;99.90;;;;;;4975231;28;20404;-92
2023/09/12 05:32:30;;;;;;;139.40;58.90;;;18.10;99.90;;;;;;4972767;28;20467;-91
2023/09/12 05:34:56;;;;;;;221.90;64.17;;;18.10;99.90;;;;;;4974913;28;20452;-93
2023/09/12 05:37:22;;;;;;;116.78;58.88;;;18.20;99.90;;;;;;4973128;28;20416;-91
2023/09/12 05:39:48;;;;;;;153.05;59.63;;;17.90;99.90;;;;;;4974561;28;20730;-92
2023/09/12 05:42:14;;;;;;;107.77;54.30;;;18.20;99.90;;;;;;4974219;28;20484;-91
2023/09/12 05:44:42;;;;;;;261.02;64.93;;;18.20;99.90;;;;;;4973428;28;20409;-93
2023/09/12 05:47:08;;;;;;;207.05;61.22;;;18.30;99.90;;;;;;4975164;28;20424;-91
2023/09/12 05:49:34;;;;;;;114.30;58.92;;;18.50;99.90;;;;;;4972549;28;20479;-91
2023/09/12 05:51:59;;;;;;;106.45;60.75;;;18.70;99.90;;;;;;4974890;28;20416;-93
2023/09/12 05:54:25;;;;;;;160.97;61.73;;;18.40;99.90;;;;;;4973129;28;20411;-92
2023/09/12 05:56:53;;;;;;;225.57;60.38;;;19.00;99.90;;;;;;4972030;28;20988;-91
2023/09/12 05:59:19;;;;;;;187.20;65.30;;;18.50;99.90;;;;;;4954545;28;20414;-92
2023/09/12 06:01:45;;;;;;;190.60;62.70;;;18.50;99.90;;;;;;4953926;28;20450;-92
2023/09/12 06:04:11;;;;;;;205.73;62.85;;;18.50;99.90;;;;;;4955295;28;20429;-92
2023/09/12 06:06:36;;;;;;;314.42;70.75;;;18.70;99.90;;;;;;4952816;28;20913;-93
2023/09/12 06:09:03;;;;;;;244.53;64.83;;;18.60;99.90;;;;;;4955157;28;20419;-92
2023/09/12 06:11:29;;;;;;;155.88;60.42;;;18.60;99.90;;;;;;4952741;28;20422;-92
2023/09/12 06:13:55;;;;;;;231.90;66.15;;;18.60;99.90;;;;;;4955878;28;20828;-92
2023/09/12 06:16:21;;;;;;;115.37;57.47;;;18.70;99.90;;;;;;4953176;28;20988;-91
2023/09/12 06:18:48;;;;;;;108.80;57.03;;;18.70;99.90;;;;;;4954957;28;20406;-93
2023/09/12 06:21:14;;;;;;;116.63;59.10;;;18.70;99.90;;;;;;4954681;28;20461;-92
2023/09/12 06:23:40;;;;;;;165.73;62.78;;;19.20;99.90;;;;;;4953571;28;20972;-93
2023/09/12 06:26:05;;;;;;;180.30;64.45;;;19.20;99.90;;;;;;4963806;28;20506;-92
2023/09/12 06:28:31;;;;;;;109.80;59.63;;;18.80;99.90;;;;;;4972173;28;20421;-93
2023/09/12 06:30:58;;;;;;;194.82;63.97;;;19.00;99.90;;;;;;4977929;28;20446;-93
2023/09/12 06:33:25;;;;;;;132.30;62.45;;;18.90;99.90;;;;;;4975715;28;20615;-92
2023/09/12 06:35:52;;;;;;;126.47;63.20;;;19.10;99.90;;;;;;4977668;28;20419;-91
2023/09/12 06:38:23;;;;;;;169.77;66.07;;;18.80;99.90;;;;;;4976623;28;20409;-92
2023/09/12 06:40:49;;;;;;;293.65;74.05;;;19.10;99.90;;;;;;4976717;28;20440;-90
2023/09/12 06:43:14;;;;;;;129.38;61.88;;;19.30;99.90;;;;;;4978169;28;21034;-91
2023/09/12 06:45:41;;;;;;;159.77;66.70;;;19.00;99.90;;;;;;4975691;28;20494;-91
2023/09/12 06:48:07;;;;;;;126.73;62.93;;;19.00;99.90;;;;;;4978057;28;20459;-91
2023/09/12 06:50:32;;;;;;;128.57;61.47;;;19.50;99.90;;;;;;4975122;28;20413;-91
2023/09/12 06:52:58;;;;;;;176.55;67.13;;;19.30;99.90;;;;;;4977672;28;20401;-91
2023/09/12 06:55:24;;;;;;;112.87;61.93;;;19.10;99.90;;;;;;4975647;28;20475;-92
2023/09/12 06:57:50;;;;;;;82.35;54.97;;;19.10;99.90;;;;;;4977511;28;20447;-92
2023/09/12 07:00:16;;;;;;;97.22;56.92;;;19.10;99.90;;;;;;4977370;28;20417;-90
2023/09/12 07:02:42;;;;;;;84.57;55.38;;;19.10;99.90;;;;;;4975703;28;20432;-92
2023/09/12 07:05:08;;;;;;;101.05;58.97;;;19.10;99.90;;;;;;4977421;28;20440;-92
2023/09/12 07:07:34;;;;;;;86.20;55.53;;;19.10;99.90;;;;;;4975275;28;20423;-92
2023/09/12 07:10:00;;;;;;;96.82;58.03;;;19.40;99.90;;;;;;4977670;28;21081;-93
2023/09/12 07:12:28;;;;;;;90.65;56.22;;;19.20;99.90;;;;;;4975172;28;20409;-92
2023/09/12 07:14:55;;;;;;;132.57;63.40;;;19.60;99.90;;;;;;4977126;28;20471;-91
2023/09/12 07:17:21;;;;;;;121.55;62.45;;;19.20;99.90;;;;;;4976257;28;20408;-93
2023/09/12 07:19:47;;;;;;;93.85;58.90;;;19.30;99.90;;;;;;4976090;28;20417;-92
2023/09/12 07:22:13;;;;;;;104.38;59.72;;;19.50;99.90;;;;;;4976905;28;20445;-91
2023/09/12 07:24:39;;;;;;;101.77;60.17;;;19.30;99.90;;;;;;4975188;28;20911;-92
2023/09/12 07:27:04;;;;;;;111.55;61.67;;;19.30;99.90;;;;;;4977299;28;20470;-92
2023/09/12 07:29:30;;;;;;;120.07;64.70;;;19.20;99.90;;;;;;4974618;28;20409;-92
2023/09/12 07:31:56;;;;;;;134.70;65.63;;;19.40;99.90;;;;;;4977167;28;20415;-92
2023/09/12 07:34:23;;;;;;;111.43;64.10;;;19.50;99.90;;;;;;4974843;28;20416;-91
2023/09/12 07:36:51;;;;;;;114.68;64.35;;;19.50;99.90;;;;;;4973229;28;20422;-93
2023/09/12 07:39:17;;;;;;;112.10;62.30;;;19.60;99.90;;;;;;4972795;28;20419;-92
2023/09/12 07:41:43;;;;;;;100.30;61.10;;;19.70;99.90;;;;;;4971518;28;20434;-93
2023/09/12 07:44:11;;;;;;;131.15;68.55;;;20.20;99.90;;;;;;4973486;28;20422;-93
2023/09/12 07:46:37;;;;;;;99.13;61.83;;;20.40;99.90;;;;;;4970886;28;20413;-93
2023/09/12 07:49:03;;;;;;;90.82;58.72;;;20.20;99.90;;;;;;4973228;28;20409;-94
2023/09/12 07:51:29;;;;;;;102.27;62.73;;;20.20;99.90;;;;;;4970662;28;20485;-94
2023/09/12 07:53:54;;;;;;;93.88;60.30;;;20.30;99.90;;;;;;4973217;28;20935;-93
2023/09/12 07:56:20;;;;;;;105.80;62.47;;;20.30;99.90;;;;;;4971701;28;20414;-94
2023/09/12 07:58:46;;;;;;;103.35;63.45;;;20.40;99.90;;;;;;4971810;28;20410;-92
2023/09/12 08:01:12;;;;;;;99.43;64.00;;;20.80;99.90;;;;;;4973177;28;20456;-93
2023/09/12 08:03:39;;;;;;;91.47;59.58;;;20.90;99.90;;;;;;4970571;28;20441;-93
2023/09/12 08:06:05;;;;;;;100.70;61.30;;;20.60;99.90;;;;;;4972763;28;20416;-94
2023/09/12 08:08:31;;;;;;;95.65;61.25;;;20.60;99.90;;;;;;4970545;28;20424;-94
2023/09/12 08:10:57;;;;;;;92.55;60.75;;;20.70;99.90;;;;;;4972552;28;20399;-94
2023/09/12 08:13:26;;;;;;;92.70;61.00;;;20.70;99.90;;;;;;4970286;28;20414;-94
2023/09/12 08:15:52;;;;;;;95.50;63.43;;;20.80;99.90;;;;;;4972105;28;20956;-95
2023/09/12 08:18:17;;;;;;;88.70;60.28;;;20.90;99.90;;;;;;4972255;28;20425;-92
2023/09/12 08:20:43;;;;;;;86.95;58.15;;;21.00;99.90;;;;;;4970540;28;21060;-94
2023/09/12 08:23:09;;;;;;;86.50;60.05;;;21.00;99.90;;;;;;4972918;28;20564;-94
2023/09/12 08:25:35;;;;;;;90.47;58.75;;;21.10;99.90;;;;;;4969962;28;20422;-94
2023/09/12 08:28:00;;;;;;;86.13;59.60;;;21.20;99.90;;;;;;4972221;28;20948;-94
2023/09/12 08:30:29;;;;;;;79.85;57.80;;;21.30;99.90;;;;;;4969822;28;20411;-94
2023/09/12 08:32:55;;;;;;;91.97;59.78;;;21.70;99.90;;;;;;4972341;28;20414;-95
2023/09/12 08:35:21;;;;;;;85.78;58.28;;;21.10;99.90;;;;;;4970811;28;20968;-94
2023/09/12 08:37:47;;;;;;;80.93;58.95;;;21.80;99.90;;;;;;4970592;28;20423;-94
2023/09/12 08:40:13;;;;;;;86.57;61.53;;;21.20;99.90;;;;;;4971926;28;20418;-94
2023/09/12 08:42:44;;;;;;;77.18;57.28;;;21.40;99.90;;;;;;4969009;28;20431;-94
2023/09/12 08:45:13;;;;;;;83.15;59.47;;;21.30;99.90;;;;;;4972508;28;20829;-94
2023/09/12 08:47:41;;;;;;;75.47;56.57;;;21.20;99.90;;;;;;4970266;28;20429;-96
2023/09/12 08:50:16;;;;;;;75.57;55.70;;;21.40;99.90;;;;;;4972176;28;20801;-95
2023/09/12 08:52:43;;;;;;;72.07;53.37;;;21.50;99.90;;;;;;4970131;28;20495;-94
2023/09/12 08:55:12;;;;;;;72.47;54.92;;;21.60;99.90;;;;;;4969595;28;20418;-96
2023/09/12 08:57:40;;;;;;;83.97;58.53;;;21.80;99.90;;;;;;4935223;28;20507;-94
2023/09/12 09:00:14;;;;;;;75.17;56.67;;;21.70;99.90;;;;;;4934506;28;20784;-95
2023/09/12 09:02:46;;;;;;;69.47;54.80;;;21.70;99.90;;;;;;4936463;28;20947;-96
2023/09/12 09:05:11;;;;;;;70.20;54.58;;;21.80;99.90;;;;;;4933495;28;20420;-96
2023/09/12 09:07:39;;;;;;;70.60;55.50;;;22.40;99.90;;;;;;4937206;28;20413;-96
2023/09/12 09:10:07;;;;;;;71.22;56.42;;;22.10;99.90;;;;;;4934329;28;20415;-95
2023/09/12 09:12:34;;;;;;;58.83;49.78;;;22.30;99.90;;;;;;4934928;28;20911;-95
2023/09/12 09:15:23;;;;;;;66.13;52.33;;;22.50;99.90;;;;;;4935736;28;20423;-96
2023/09/12 09:17:52;;;;;;;62.03;49.88;;;22.70;99.90;;;;;;4949373;28;20423;-89
2023/09/12 09:20:31;;;;;;;67.10;53.75;;;22.80;99.90;;;;;;4927570;28;20484;-91
2023/09/12 09:23:00;;;;;;;53.28;45.90;;;22.80;99.90;;;;;;4948803;28;20752;-90
2023/09/12 09:25:27;;;;;;;69.43;53.03;;;22.90;99.90;;;;;;4935073;28;20481;-89
2023/09/12 09:27:53;;;;;;;50.90;44.63;;;23.20;99.90;;;;;;4950524;28;20424;-89
2023/09/12 09:30:38;;;;;;;60.37;48.43;;;23.00;99.90;;;;;;4968648;28;20410;-90
2023/09/12 09:33:04;;;;;;;54.70;47.35;;;23.10;99.90;;;;;;4970229;28;20943;-90
2023/09/12 09:35:30;;;;;;;52.20;44.10;;;23.20;99.90;;;;;;4952015;28;20418;-90
2023/09/12 09:37:56;;;;;;;57.28;48.00;;;23.30;99.90;;;;;;4954347;28;20422;-91
2023/09/12 09:40:23;;;;;;;56.38;46.83;;;23.90;99.90;;;;;;4952294;28;20407;-89
2023/09/12 09:42:53;;;;;;;55.13;45.95;;;23.20;99.90;;;;;;4969682;28;20553;-91
2023/09/12 09:45:19;;;;;;;50.42;43.35;;;23.20;99.90;;;;;;4954294;28;20469;-90
2023/09/12 09:47:45;;;;;;;52.13;44.57;;;23.10;99.90;;;;;;4952467;28;20423;-89
2023/09/12 09:50:14;;;;;;;58.30;47.10;;;23.00;99.90;;;;;;4954539;28;20410;-89
2023/09/12 09:52:40;;;;;;;55.90;47.33;;;23.00;99.90;;;;;;4951971;28;20506;-90
2023/09/12 09:55:15;;;;;;;49.77;43.13;;;22.90;99.90;;;;;;4954071;28;20501;-89
2023/09/12 09:57:40;;;;;;;56.40;45.45;;;23.00;99.90;;;;;;4950330;28;20422;-91
2023/09/12 10:00:11;;;;;;;40.30;34.80;;;23.10;99.90;;;;;;4970670;28;20892;-90
2023/09/12 10:02:39;;;;;;;39.93;34.30;;;23.20;99.90;;;;;;4933938;28;20447;-89
2023/09/12 10:05:08;;;;;;;42.10;35.78;;;23.30;99.90;;;;;;4936861;28;20439;-89
2023/09/12 10:07:37;;;;;;;35.05;31.27;;;23.50;99.90;;;;;;4938079;28;20412;-89
2023/09/12 10:10:04;;;;;;;34.13;30.50;;;23.50;99.90;;;;;;4935100;28;20464;-88
2023/09/12 10:12:36;;;;;;;31.88;28.48;;;23.60;99.90;;;;;;4954112;28;20749;-89
2023/09/12 10:15:04;;;;;;;26.95;23.48;;;23.50;99.90;;;;;;4935822;28;20430;-88
2023/09/12 10:17:37;;;;;;;28.83;25.75;;;23.90;99.90;;;;;;4984278;28;20416;-90
2023/09/12 10:20:09;;;;;;;26.27;23.33;;;24.40;99.90;;;;;;4992466;28;20429;-90
2023/09/12 10:22:43;;;;;;;21.67;19.45;;;24.40;99.90;;;;;;4990680;28;21001;-90
2023/09/12 10:25:09;;;;;;;21.77;19.52;;;25.10;99.90;;;;;;4977683;28;20497;-90
2023/09/12 10:27:34;;;;;;;23.48;21.08;;;24.90;99.90;;;;;;4998045;28;20960;-89
2023/09/12 10:30:02;;;;;;;21.90;18.25;;;25.50;99.90;;;;;;4967406;28;20495;-89
2023/09/12 10:32:30;;;;;;;20.20;18.30;;;25.30;99.90;;;;;;4970924;28;20419;-89
2023/09/12 10:34:58;;;;;;;21.47;19.20;;;25.40;99.90;;;;;;4971375;28;21027;-89
2023/09/12 10:37:28;;;;;;;20.10;18.00;;;25.60;99.90;;;;;;4974246;28;20419;-88
2023/09/12 10:39:55;;;;;;;23.08;20.67;;;25.90;99.90;;;;;;4970366;28;20417;-89
2023/09/12 10:42:23;;;;;;;22.48;20.10;;;25.90;99.90;;;;;;4956194;28;20841;-89
2023/09/12 10:44:51;;;;;;;24.10;21.50;;;26.20;99.90;;;;;;4975134;28;20407;-89
2023/09/12 10:47:18;;;;;;;23.17;20.67;;;26.40;99.90;;;;;;4972516;28;20901;-89
2023/09/12 10:49:44;;;;;;;19.83;17.73;;;26.20;99.90;;;;;;4987687;28;20494;-88
2023/09/12 10:52:10;;;;;;;21.05;18.92;;;26.10;99.90;;;;;;4956823;28;20598;-89
2023/09/12 10:54:40;;;;;;;23.93;21.27;;;26.10;99.90;;;;;;4975178;28;20405;-89
2023/09/12 10:57:16;;;;;;;22.45;20.15;;;26.00;99.90;;;;;;4990171;28;20415;-89
2023/09/12 10:59:59;;;;;;;22.20;19.90;;;25.80;99.90;;;;;;4994515;28;20925;-89
2023/09/12 11:02:29;;;;;;;21.75;19.13;;;25.90;99.90;;;;;;4969544;28;20485;-90
2023/09/12 11:04:55;;;;;;;21.42;19.23;;;25.80;99.90;;;;;;4972196;28;20419;-90
2023/09/12 11:07:44;;;;;;;23.52;21.02;;;26.40;99.90;;;;;;4970932;28;20578;-90
2023/09/12 11:10:14;;;;;;;21.88;19.45;;;25.90;99.90;;;;;;4954351;28;20427;-90
2023/09/12 11:12:40;;;;;;;19.13;17.02;;;26.00;99.90;;;;;;4972443;28;20435;-90
2023/09/12 11:15:08;;;;;;;18.35;16.55;;;26.00;99.90;;;;;;4969134;28;20465;-89
2023/09/12 11:17:38;;;;;;;18.00;16.27;;;26.00;99.90;;;;;;4966359;28;20425;-89
2023/09/12 11:20:10;;;;;;;16.17;14.48;;;25.90;99.90;;;;;;4969258;28;20422;-89
2023/09/12 11:22:40;;;;;;;14.80;13.25;;;26.00;99.90;;;;;;4971087;28;20433;-89
2023/09/12 11:25:27;;;;;;;15.18;12.95;;;26.20;99.90;;;;;;4971109;28;20792;-89
2023/09/12 11:27:53;;;;;;;15.40;13.60;;;26.20;99.90;;;;;;4950276;28;20456;-89
2023/09/12 11:30:20;;;;;;;15.02;13.40;;;25.80;99.90;;;;;;4971770;28;20422;-89
2023/09/12 11:32:51;;;;;;;13.93;12.30;;;26.00;97.50;;;;;;4983142;28;20411;-87
2023/09/12 11:35:23;;;;;;;15.68;13.52;;;25.80;99.40;;;;;;4982760;28;20826;-89
2023/09/12 11:37:50;;;;;;;14.13;12.63;;;26.00;99.90;;;;;;4974116;28;20447;-90
2023/09/12 11:40:25;;;;;;;14.35;12.85;;;26.30;99.90;;;;;;4969737;28;20421;-89
2023/09/12 11:42:51;;;;;;;15.25;13.68;;;26.70;97.60;;;;;;4971256;28;20438;-88
2023/09/12 11:45:21;;;;;;;16.10;13.40;;;27.00;99.00;;;;;;4965064;28;20875;-88
2023/09/12 11:47:48;;;;;;;13.90;12.38;;;27.40;99.00;;;;;;4970717;28;20445;-89
2023/09/12 11:50:31;;;;;;;15.13;12.43;;;27.80;92.10;;;;;;4969248;28;20418;-90
2023/09/12 11:53:07;;;;;;;15.95;12.93;;;28.10;83.40;;;;;;4970882;28;20422;-89
2023/09/12 11:55:48;;;;;;;13.35;11.15;;;28.20;80.70;;;;;;4971542;28;20419;-88
2023/09/12 11:58:16;;;;;;;13.20;11.90;;;28.60;94.40;;;;;;4969337;28;20414;-89
2023/09/12 12:00:49;;;;;;;13.35;11.95;;;29.00;87.90;;;;;;4988947;28;20821;-89
2023/09/12 12:03:15;;;;;;;14.40;12.33;;;29.10;79.10;;;;;;4953174;28;20423;-90
2023/09/12 12:05:41;;;;;;;13.70;12.27;;;28.60;78.60;;;;;;4971385;28;20437;-90
2023/09/12 12:08:08;;;;;;;14.65;13.20;;;28.00;80.80;;;;;;4954921;28;20427;-89
2023/09/12 12:10:35;;;;;;;15.63;14.02;;;27.30;86.00;;;;;;4969987;28;20418;-90
2023/09/12 12:13:01;;;;;;;15.27;13.20;;;26.80;91.90;;;;;;4971432;28;20940;-90
2023/09/12 12:15:30;;;;;;;14.17;12.70;;;26.10;94.30;;;;;;4953723;28;20410;-89
2023/09/12 12:17:56;;;;;;;14.52;13.05;;;25.50;99.70;;;;;;4970852;28;20489;-89
2023/09/12 12:20:22;;;;;;;14.38;12.85;;;25.20;99.90;;;;;;4953484;28;20613;-88
2023/09/12 12:22:48;;;;;;;15.60;13.68;;;25.20;99.90;;;;;;4970949;28;20426;-90
2023/09/12 12:25:15;;;;;;;15.20;13.57;;;25.10;99.90;;;;;;4953883;28;20407;-92